createdAt,value
2023-04-01T00:00:26.933Z,11.34
2023-04-01T00:03:30.349Z,11.42
2023-04-01T00:06:32.894Z,11.65
2023-04-01T00:09:35.425Z,11.59
2023-04-01T00:12:38.622Z,11.52
2023-04-01T00:15:40.894Z,11.71
2023-04-01T00:18:43.158Z,11.89
2023-04-01T00:21:45.393Z,12.01
2023-04-01T00:24:47.794Z,12.13
2023-04-01T00:27:50.433Z,12.23
2023-04-01T00:30:52.927Z,12.27
2023-04-01T00:33:55.177Z,12.32
2023-04-01T00:36:57.576Z,12.36
2023-04-01T00:40:00.199Z,12.37
2023-04-01T00:43:03.303Z,12.41
2023-04-01T00:46:05.680Z,12.45
2023-04-01T00:49:08.073Z,12.49
2023-04-01T00:52:12.888Z,12.52
2023-04-01T00:55:15.994Z,12.54
2023-04-01T00:58:19.928Z,12.54
2023-04-01T01:01:24.136Z,12.53
2023-04-01T01:04:27.509Z,12.55
2023-04-01T01:07:38.336Z,12.54
2023-04-01T01:10:40.910Z,12.55
2023-04-01T01:14:14.885Z,12.54
2023-04-01T01:17:35.684Z,12.52
2023-04-01T01:21:09.303Z,12.49
2023-04-01T01:24:26.734Z,12.49
2023-04-01T01:27:29.763Z,12.50
2023-04-01T01:30:50.020Z,12.50
2023-04-01T01:34:19.407Z,12.45
2023-04-01T01:37:24.252Z,12.46
2023-04-01T01:40:27.901Z,12.46
2023-04-01T01:43:38.134Z,12.45
2023-04-01T01:46:42.303Z,12.45
2023-04-01T01:49:44.979Z,12.47
2023-04-01T01:52:47.290Z,12.48
2023-04-01T01:55:50.754Z,12.46
2023-04-01T01:58:54.100Z,12.48
2023-04-01T02:01:58.053Z,12.45
2023-04-01T02:05:00.887Z,12.45
2023-04-01T02:08:10.120Z,12.36
2023-04-01T02:11:15.403Z,12.34
2023-04-01T02:14:26.065Z,12.35
2023-04-01T02:17:31.070Z,12.35
2023-04-01T02:20:33.401Z,12.36
2023-04-01T02:23:37.240Z,12.39
2023-04-01T02:26:40.132Z,12.41
2023-04-01T02:29:42.497Z,12.39
2023-04-01T02:32:45.753Z,12.39
2023-04-01T02:35:48.394Z,12.38
2023-04-01T02:38:51.187Z,12.37
2023-04-01T02:41:53.579Z,12.38
2023-04-01T02:44:55.823Z,12.32
2023-04-01T02:47:58.351Z,12.34
2023-04-01T02:51:00.781Z,12.36
2023-04-01T02:54:03.374Z,12.38
2023-04-01T02:57:05.777Z,12.37
2023-04-01T03:00:12.263Z,12.36
2023-04-01T03:03:14.939Z,12.35
2023-04-01T03:06:18.264Z,12.34
2023-04-01T03:09:20.906Z,12.33
2023-04-01T03:12:23.191Z,12.29
2023-04-01T03:15:27.591Z,12.28
2023-04-01T03:18:30.649Z,12.26
2023-04-01T03:21:33.867Z,12.25
2023-04-01T03:24:36.957Z,12.25
2023-04-01T03:27:39.636Z,12.24
2023-04-01T03:30:43.173Z,12.26
2023-04-01T03:33:45.979Z,12.26
2023-04-01T03:36:48.226Z,12.23
2023-04-01T03:39:50.732Z,12.18
2023-04-01T03:42:53.569Z,12.11
2023-04-01T03:45:55.903Z,12.09
2023-04-01T03:48:58.223Z,12.07
2023-04-01T03:52:00.570Z,12.06
2023-04-01T03:55:03.141Z,12.03
2023-04-01T03:58:07.422Z,12.02
2023-04-01T04:01:22.188Z,12.03
2023-04-01T04:04:28.082Z,11.98
2023-04-01T04:07:30.685Z,11.99
2023-04-01T04:10:39.537Z,11.97
2023-04-01T04:13:42.396Z,11.95
2023-04-01T04:16:45.466Z,11.95
2023-04-01T04:19:47.792Z,11.95
2023-04-01T04:22:50.763Z,11.91
2023-04-01T04:25:56.053Z,11.91
2023-04-01T04:28:58.716Z,11.91
2023-04-01T04:32:01.605Z,11.95
2023-04-01T04:35:04.172Z,11.98
2023-04-01T04:38:06.588Z,12.05
2023-04-01T04:41:13.800Z,12.08
2023-04-01T04:44:17.632Z,12.13
2023-04-01T04:47:20.070Z,12.05
2023-04-01T04:50:22.849Z,12.05
2023-04-01T04:53:26.390Z,12.06
2023-04-01T04:56:28.716Z,12.07
2023-04-01T04:59:40.229Z,12.08
2023-04-01T05:02:47.732Z,12.16
2023-04-01T05:05:52.160Z,12.20
2023-04-01T05:08:54.522Z,12.24
2023-04-01T05:11:56.857Z,12.29
2023-04-01T05:15:00.915Z,12.39
2023-04-01T05:18:03.776Z,12.50
2023-04-01T05:21:08.529Z,12.70
2023-04-01T05:24:11.044Z,12.92
2023-04-01T05:27:13.697Z,13.10
2023-04-01T05:30:17.468Z,13.23
2023-04-01T05:33:34.626Z,13.45
2023-04-01T05:36:37.580Z,13.75
2023-04-01T05:39:39.833Z,14.13
2023-04-01T05:42:43.196Z,14.26
2023-04-01T05:45:45.727Z,14.57
2023-04-01T05:48:48.028Z,15.12
2023-04-01T05:51:50.661Z,15.98
2023-04-01T05:54:53.293Z,16.32
2023-04-01T05:57:55.605Z,15.94
2023-04-01T06:01:09.494Z,15.47
2023-04-01T06:04:18.471Z,15.64
2023-04-01T06:07:21.578Z,15.76
2023-04-01T06:10:24.862Z,15.66
2023-04-01T06:13:42.448Z,15.91
2023-04-01T06:16:53.604Z,15.66
2023-04-01T06:20:07.032Z,15.19
2023-04-01T06:23:28.606Z,14.96
2023-04-01T06:26:43.284Z,15.27
2023-04-01T06:29:58.022Z,15.60
2023-04-01T06:33:12.372Z,15.91
2023-04-01T06:36:21.050Z,17.22
2023-04-01T06:39:29.901Z,17.35
2023-04-01T06:42:44.100Z,17.67
2023-04-01T06:46:19.280Z,18.21
2023-04-01T06:50:26.371Z,19.36
2023-04-01T06:53:56.734Z,20.82
2023-04-01T06:57:27.950Z,21.02
2023-04-01T07:00:34.266Z,20.50
2023-04-01T07:03:37.836Z,20.23
2023-04-01T07:06:51.104Z,19.78
2023-04-01T07:09:56.761Z,20.98
2023-04-01T07:13:26.111Z,21.98
2023-04-01T07:16:36.276Z,22.52
2023-04-01T07:19:57.248Z,22.99
2023-04-01T07:23:01.935Z,22.07
2023-04-01T07:26:24.608Z,21.52
2023-04-01T07:29:33.078Z,21.53
2023-04-01T07:32:51.762Z,22.08
2023-04-01T07:36:25.532Z,23.62
2023-04-01T07:39:59.796Z,25.73
2023-04-01T07:43:11.760Z,25.68
2023-04-01T07:46:31.782Z,25.60
2023-04-01T07:49:40.566Z,25.67
2023-04-01T07:52:59.461Z,21.62
2023-04-01T07:56:13.020Z,21.88
2023-04-01T07:59:49.209Z,23.16
2023-04-01T08:03:26.316Z,22.13
2023-04-01T08:06:38.133Z,20.89
2023-04-01T08:10:26.587Z,19.39
2023-04-01T08:14:37.069Z,18.82
2023-04-01T08:18:51.027Z,18.19
2023-04-01T08:21:53.997Z,17.97
2023-04-01T08:25:01.101Z,18.35
2023-04-01T08:28:21.168Z,18.39
2023-04-01T08:31:41.959Z,18.87
2023-04-01T08:34:47.170Z,19.04
2023-04-01T08:38:03.340Z,18.85
2023-04-01T08:41:13.067Z,18.50
2023-04-01T08:49:14.377Z,17.49
2023-04-01T08:53:01.656Z,17.48
2023-04-01T08:56:19.818Z,17.97
2023-04-01T08:59:46.920Z,17.83
2023-04-01T09:03:33.825Z,17.82
2023-04-01T09:06:47.177Z,17.52
2023-04-01T09:10:39.100Z,17.13
2023-04-01T09:14:06.982Z,17.12
2023-04-01T09:17:30.928Z,17.65
2023-04-01T09:21:26.876Z,17.82
2023-04-01T09:24:41.340Z,17.80
2023-04-01T09:27:59.493Z,17.28
2023-04-01T09:31:07.530Z,16.94
2023-04-01T09:34:33.049Z,16.46
2023-04-01T09:37:54.793Z,16.48
2023-04-01T09:41:36.875Z,16.33
2023-04-01T09:45:08.947Z,16.23
2023-04-01T09:48:27.417Z,16.24
2023-04-01T09:51:52.839Z,16.43
2023-04-01T09:55:01.514Z,16.30
2023-04-01T09:58:43.545Z,16.15
2023-04-01T10:02:51.953Z,16.14
2023-04-01T10:06:42.039Z,16.15
2023-04-01T10:10:17.802Z,16.07
2023-04-01T10:13:58.409Z,16.03
2023-04-01T10:17:12.724Z,15.99
2023-04-01T10:20:30.291Z,16.00
2023-04-01T10:24:09.320Z,15.95
2023-04-01T10:27:59.136Z,15.97
2023-04-01T10:31:21.182Z,16.05
2023-04-01T10:34:35.576Z,16.09
2023-04-01T10:38:03.390Z,16.38
2023-04-01T10:41:15.811Z,16.65
2023-04-01T10:45:16.686Z,16.69
2023-04-01T10:48:45.566Z,16.60
2023-04-01T10:52:05.685Z,16.54
2023-04-01T10:56:02.226Z,16.55
2023-04-01T10:59:46.665Z,16.55
2023-04-01T11:03:28.695Z,16.67
2023-04-01T11:07:04.890Z,16.68
2023-04-01T11:10:44.230Z,16.55
2023-04-01T11:13:56.352Z,16.59
2023-04-01T11:17:28.401Z,16.71
2023-04-01T11:20:46.033Z,16.58
2023-04-01T11:24:05.803Z,16.24
2023-04-01T11:27:22.909Z,16.37
2023-04-01T11:30:59.689Z,16.61
2023-04-01T11:34:17.840Z,16.84
2023-04-01T11:37:23.479Z,16.97
2023-04-01T11:41:27.813Z,16.90
2023-04-01T11:45:09.079Z,16.79
2023-04-01T11:48:30.058Z,16.61
2023-04-01T11:51:46.899Z,16.48
2023-04-01T11:55:04.873Z,16.17
2023-04-01T11:58:42.192Z,16.11
2023-04-01T12:02:00.099Z,16.17
2023-04-01T12:05:22.120Z,16.17
2023-04-01T12:09:01.732Z,16.22
2023-04-01T12:12:22.161Z,16.34
2023-04-01T12:15:30.324Z,16.43
2023-04-01T12:18:47.692Z,16.33
2023-04-01T12:22:27.019Z,16.37
2023-04-01T12:25:53.790Z,16.52
2023-04-01T12:29:33.136Z,16.63
2023-04-01T12:33:20.287Z,16.56
2023-04-01T12:36:41.803Z,16.51
2023-04-01T12:40:02.608Z,16.49
2023-04-01T12:43:23.247Z,16.61
2023-04-01T12:46:27.536Z,16.77
2023-04-01T12:49:40.311Z,16.81
2023-04-01T12:52:48.520Z,16.84
2023-04-01T12:55:53.537Z,16.79
2023-04-01T12:59:01.832Z,16.83
2023-04-01T13:02:12.591Z,16.87
2023-04-01T13:05:14.883Z,16.92
2023-04-01T13:08:17.761Z,16.79
2023-04-01T13:11:24.136Z,16.86
2023-04-01T13:14:31.736Z,16.90
2023-04-01T13:17:49.602Z,16.98
2023-04-01T13:21:07.454Z,16.85
2023-04-01T13:24:41.731Z,16.81
2023-04-01T13:27:52.092Z,16.74
2023-04-01T13:31:04.263Z,16.77
2023-04-01T13:34:14.476Z,16.82
2023-04-01T13:37:28.343Z,16.80
2023-04-01T13:40:42.803Z,16.81
2023-04-01T13:44:12.754Z,16.73
2023-04-01T13:47:36.357Z,16.73
2023-04-01T13:50:52.889Z,16.66
2023-04-01T13:54:07.287Z,16.58
2023-04-01T13:57:24.656Z,16.54
2023-04-01T14:00:33.012Z,16.38
2023-04-01T14:03:50.609Z,16.37
2023-04-01T14:07:21.267Z,16.20
2023-04-01T14:11:08.279Z,16.11
2023-04-01T14:14:17.418Z,16.06
2023-04-01T14:17:25.833Z,15.95
2023-04-01T14:20:41.788Z,15.99
2023-04-01T14:24:15.084Z,15.99
2023-04-01T14:27:31.767Z,16.02
2023-04-01T14:30:56.994Z,16.04
2023-04-01T14:34:11.480Z,16.10
2023-04-01T14:37:31.841Z,16.12
2023-04-01T14:40:55.344Z,16.09
2023-04-01T14:44:18.883Z,16.16
2023-04-01T14:47:36.375Z,16.24
2023-04-01T14:50:53.584Z,16.23
2023-04-01T14:54:43.424Z,16.21
2023-04-01T14:58:19.062Z,16.22
2023-04-01T15:01:33.469Z,16.26
2023-04-01T15:04:51.001Z,16.22
2023-04-01T15:07:57.904Z,16.23
2023-04-01T15:11:34.342Z,16.11
2023-04-01T15:14:48.767Z,16.11
2023-04-01T15:18:21.380Z,16.05
2023-04-01T15:21:29.193Z,16.19
2023-04-01T15:24:46.080Z,16.30
2023-04-01T15:28:03.230Z,16.36
2023-04-01T15:31:14.898Z,16.47
2023-04-01T15:34:49.582Z,16.53
2023-04-01T15:37:57.042Z,16.62
2023-04-01T15:41:31.615Z,16.66
2023-04-01T15:45:07.193Z,16.57
2023-04-01T15:48:27.464Z,16.48
2023-04-01T15:52:05.140Z,16.46
2023-04-01T15:55:07.799Z,16.45
2023-04-01T15:58:16.342Z,16.44
2023-04-01T16:01:30.998Z,16.38
2023-04-01T16:04:48.051Z,16.31
2023-04-01T16:07:56.189Z,16.28
2023-04-01T16:11:03.718Z,16.25
2023-04-01T16:14:20.449Z,16.23
2023-04-01T16:17:38.020Z,16.15
2023-04-01T16:20:53.213Z,16.17
2023-04-01T16:24:25.147Z,16.24
2023-04-01T16:27:45.498Z,16.26
2023-04-01T16:30:57.319Z,16.22
2023-04-01T16:34:22.466Z,16.27
2023-04-01T16:37:37.403Z,16.25
2023-04-01T16:41:02.588Z,16.21
2023-04-01T16:44:23.751Z,16.16
2023-04-01T16:47:40.011Z,16.07
2023-04-01T16:51:06.086Z,15.99
2023-04-01T16:54:37.212Z,15.99
2023-04-01T16:57:52.256Z,15.97
2023-04-01T17:01:02.012Z,15.95
2023-04-01T17:04:26.710Z,15.90
2023-04-01T17:07:38.014Z,15.86
2023-04-01T17:11:02.290Z,15.81
2023-04-01T17:14:31.502Z,15.79
2023-04-01T17:17:39.699Z,15.71
2023-04-01T17:20:45.530Z,15.68
2023-04-01T17:24:00.951Z,15.63
2023-04-01T17:27:03.092Z,15.55
2023-04-01T17:30:14.312Z,15.53
2023-04-01T17:34:09.974Z,15.51
2023-04-01T17:37:22.067Z,15.46
2023-04-01T17:40:44.958Z,15.44
2023-04-01T17:44:19.570Z,15.38
2023-04-01T17:47:30.924Z,15.36
2023-04-01T17:51:09.354Z,15.29
2023-04-01T17:54:33.606Z,15.24
2023-04-01T17:57:55.692Z,15.18
2023-04-01T18:01:07.351Z,15.15
2023-04-01T18:04:09.664Z,15.13
2023-04-01T18:07:31.296Z,15.10
2023-04-01T18:10:48.574Z,15.02
2023-04-01T18:14:14.454Z,14.97
2023-04-01T18:17:27.122Z,14.92
2023-04-01T18:20:37.924Z,14.90
2023-04-01T18:23:52.232Z,14.89
2023-04-01T18:27:05.575Z,14.85
2023-04-01T18:30:19.978Z,14.87
2023-04-01T18:33:25.348Z,14.87
2023-04-01T18:36:53.032Z,14.86
2023-04-01T18:40:00.784Z,14.82
2023-04-01T18:43:11.703Z,14.79
2023-04-01T18:46:52.575Z,14.76
2023-04-01T18:50:24.741Z,14.69
2023-04-01T18:53:30.702Z,14.64
2023-04-01T18:56:41.523Z,14.63
2023-04-01T18:59:48.140Z,14.60
2023-04-01T19:03:02.177Z,14.52
2023-04-01T19:06:35.275Z,14.40
2023-04-01T19:09:49.220Z,14.41
2023-04-01T19:13:28.632Z,14.41
2023-04-01T19:17:07.561Z,14.40
2023-04-01T19:20:42.096Z,14.31
2023-04-01T19:24:02.130Z,14.26
2023-04-01T19:27:28.790Z,14.18
2023-04-01T19:30:56.881Z,14.03
2023-04-01T19:34:10.720Z,13.92
2023-04-01T19:37:23.787Z,13.90
2023-04-01T19:40:44.143Z,13.87
2023-04-01T19:44:07.849Z,13.86
2023-04-01T19:47:28.197Z,13.85
2023-04-01T19:50:51.659Z,13.73
2023-04-01T19:54:17.041Z,13.78
2023-04-01T19:57:37.715Z,13.80
2023-04-01T20:00:51.520Z,13.80
2023-04-01T20:04:03.638Z,13.73
2023-04-01T20:07:31.825Z,13.65
2023-04-01T20:10:57.694Z,13.65
2023-04-01T20:14:14.481Z,13.68
2023-04-01T20:17:26.114Z,13.61
2023-04-01T20:20:31.112Z,13.57
2023-04-01T20:23:57.352Z,13.56
2023-04-01T20:27:19.637Z,13.49
2023-04-01T20:30:49.689Z,13.45
2023-04-01T20:34:17.790Z,13.42
2023-04-01T20:37:26.106Z,13.40
2023-04-01T20:40:34.612Z,13.30
2023-04-01T20:43:44.078Z,13.23
2023-04-01T20:46:57.340Z,13.13
2023-04-01T20:50:41.482Z,13.12
2023-04-01T20:53:48.029Z,13.11
2023-04-01T20:57:20.822Z,13.10
2023-04-01T21:00:33.331Z,13.09
2023-04-01T21:03:50.798Z,13.10
2023-04-01T21:06:55.911Z,13.09
2023-04-01T21:10:35.566Z,13.06
2023-04-01T21:13:55.896Z,13.03
2023-04-01T21:17:07.202Z,13.01
2023-04-01T21:20:20.046Z,12.95
2023-04-01T21:23:56.533Z,12.95
2023-04-01T21:27:26.219Z,12.93
2023-04-01T21:31:16.638Z,12.88
2023-04-01T21:34:44.986Z,12.87
2023-04-01T21:38:05.564Z,12.82
2023-04-01T21:41:32.620Z,12.78
2023-04-01T21:44:49.969Z,12.75
2023-04-01T21:48:08.658Z,12.75
2023-04-01T21:51:27.700Z,12.69
2023-04-01T21:54:48.296Z,12.56
2023-04-01T21:58:22.103Z,12.48
2023-04-01T22:01:46.396Z,12.45
2023-04-01T22:04:53.447Z,12.34
2023-04-01T22:08:00.773Z,12.15
2023-04-01T22:11:05.893Z,12.06
2023-04-01T22:14:35.130Z,11.88
2023-04-01T22:17:49.680Z,11.86
2023-04-01T22:21:22.501Z,11.79
2023-04-01T22:24:36.883Z,11.75
2023-04-01T22:27:52.287Z,11.76
2023-04-01T22:31:01.658Z,11.58
2023-04-01T22:34:09.968Z,11.67
2023-04-01T22:37:12.218Z,11.66
2023-04-01T22:40:23.645Z,11.72
2023-04-01T22:43:30.759Z,11.95
2023-04-01T22:47:00.456Z,12.12
2023-04-01T22:50:16.213Z,12.18
2023-04-01T22:53:30.214Z,12.26
2023-04-01T22:56:38.724Z,12.34
2023-04-01T22:59:51.819Z,12.38
2023-04-01T23:03:14.487Z,12.41
2023-04-01T23:06:22.283Z,12.43
2023-04-01T23:09:34.483Z,12.46
2023-04-01T23:12:36.762Z,12.46
2023-04-01T23:15:39.205Z,12.46
2023-04-01T23:18:52.749Z,12.44
2023-04-01T23:22:21.013Z,12.45
2023-04-01T23:25:23.172Z,12.42
2023-04-01T23:28:41.126Z,12.40
2023-04-01T23:31:45.945Z,12.44
2023-04-01T23:34:57.297Z,12.50
2023-04-01T23:38:00.393Z,12.59
2023-04-01T23:41:03.515Z,12.46
2023-04-01T23:44:12.304Z,12.51
2023-04-01T23:47:22.123Z,12.57
2023-04-01T23:50:26.065Z,12.63
2023-04-01T23:53:34.550Z,12.67
2023-04-01T23:56:43.605Z,12.69
